Annis, Idaho
Current Conditions -  °F | °C
As of 3:53 PM on Monday 22 Dec 2014 (Local Time) from KRXE Reporting Station
Few Clouds Few Clouds  
Wind Chill: 28°   Ceiling: Unl
Heat Index: 35°   Visibility: 10mi
Dew Point: 22°   Wind: 9mph
Humidity: 59%   Direction: 340°NNW
Pressure: 30.01"   Gusts: 18mph
Location:  43.6749°N, 111.89°W
Report Text: KRXE 222253Z AUTO 34008G16KT 10SM FEW070 FEW090 02/M06 A3001 RMK AO2 SLP179 T00171056
Loading
Personal Weather Stations






























Interactive Weather Map New forecast layout! Learn more

10-Day Weather Forecast

Advertisements
Track Severe Weather on mobile